Jackson, Mississippi
Current Conditions -  °F | °C
As of 12:53 PM on Friday 24 Oct 2014 (Local Time) from KHKS Reporting Station
Clear Clear  
Wind Chill: 71°   Ceiling: Unl
Heat Index: 71°   Visibility: 10mi
Dew Point: 42°   Wind: 0mph
Humidity: 35%   Direction: NA
Pressure: 30.12"   Gusts: NA
Location:  32.3°N, 90.18°W
Report Text: KHKS 241753Z 00000KT 10SM CLR 22/06 A3012 RMK AO2 SLP192 T02170056 10217 20067 58012
Loading
Personal Weather Stations






























Interactive Weather Map New forecast layout! Learn more

10-Day Weather Forecast

Advertisements
Track Severe Weather on mobile